Flight Track Log - Related Links

Times and Time Zones

All times are in EDT time to prevent confusion due to time zone crossing. See the EEA2731 flight status page for this flight to view local times or setup timezone preferences in your user account.

Time Position Orientation Groundspeed Altitude Reporting Facility
EDT Latitude Longitude Course Direction KTS MPH feet Rate Location/Type
Fri 02:48:00 AM 30.0149 104.3614 147° Southeast  Level Estimated
Fri 02:49:00 AM 29.9443 104.4129 148° Southeast  Level Estimated
Fri 02:50:00 AM 29.8738 104.4643 148° Southeast  Level Estimated
Fri 02:51:00 AM 29.8032 104.5156 148° Southeast  Level Estimated
Fri 02:52:00 AM 29.7326 104.5668 148° Southeast  Level Estimated
Fri 02:53:00 AM 29.6620 104.6180 148° Southeast  Level Estimated
Fri 02:54:00 AM 29.5913 104.6691 148° Southeast  Level Estimated
Fri 02:55:00 AM 29.5207 104.7201 148° Southeast  Level Estimated
Fri 02:56:00 AM 29.4500 104.7711 148° Southeast  Level Estimated
Fri 02:57:00 AM 29.3793 104.8220 148° Southeast  Level Estimated
Fri 02:58:00 AM 29.3085 104.8728 148° Southeast  Level Estimated
Fri 02:59:00 AM 29.2378 104.9235 148° Southeast  Level Estimated
Fri 03:00:00 AM 29.1670 104.9742 148° Southeast  Level Estimated
Fri 03:01:00 AM 29.0963 105.0248 148° Southeast  Level Estimated
Fri 03:02:00 AM 29.0254 105.0753 148° Southeast  Level Estimated
Fri 03:03:00 AM 28.9546 105.1258 148° Southeast  Level Estimated
Fri 03:04:00 AM 28.8838 105.1762 148° Southeast  Level Estimated
Fri 03:05:00 AM 28.8129 105.2265 148° Southeast  Level Estimated
Fri 03:06:00 AM 28.7421 105.2768 148° Southeast  Level Estimated
Fri 03:07:00 AM 28.6712 105.3270 148° Southeast  Level Estimated
Fri 03:08:00 AM 28.6003 105.3771 148° Southeast  Level Estimated
Fri 03:09:00 AM 28.5293 105.4271 148° Southeast  Level Estimated
Fri 03:10:00 AM 28.4584 105.4771 148° Southeast  Level Estimated
Fri 03:11:00 AM 28.3874 105.5270 148° Southeast  Level Estimated
Fri 03:12:00 AM 28.3164 105.5769 148° Southeast  Level Estimated
Fri 03:13:00 AM 28.2454 105.6267 148° Southeast  Level Estimated
Fri 03:14:00 AM 28.1744 105.6764 148° Southeast  Level Estimated
Fri 03:15:00 AM 28.1034 105.7261 148° Southeast  Level Estimated
Fri 03:16:00 AM 28.0323 105.7757 148° Southeast  Level Estimated
Fri 03:17:00 AM 27.9612 105.8252 148° Southeast  Level Estimated
Fri 03:18:00 AM 27.8902 105.8746 148° Southeast  Level Estimated
Fri 03:19:00 AM 27.8190 105.9240 148° Southeast  Level Estimated
Fri 03:20:00 AM 27.7479 105.9734 148° Southeast  Level Estimated
Fri 03:21:00 AM 27.6768 106.0226 148° Southeast  Level Estimated
Fri 03:22:00 AM 27.6056 106.0718 149° Southeast  Level Estimated
Fri 03:23:00 AM 27.5344 106.1210 149° Southeast  Level Estimated
Fri 03:24:00 AM 27.4632 106.1700 149° Southeast  Level Estimated
Fri 03:25:00 AM 27.3920 106.2190 149° Southeast  Level Estimated
Fri 03:26:00 AM 27.3208 106.2680 149° Southeast  Level Estimated
Fri 03:27:00 AM 27.2495 106.3169 149° Southeast  Level Estimated
Fri 03:28:00 AM 27.1783 106.3657 149° Southeast  Level Estimated
Fri 03:29:00 AM 27.1070 106.4145 149° Southeast  Level Estimated
Fri 03:30:00 AM 27.0357 106.4632 149° Southeast  Level Estimated
Fri 03:31:00 AM 26.9644 106.5118 149° Southeast  Level Estimated
Fri 03:32:00 AM 26.8930 106.5604 149° Southeast  Level Estimated
Fri 03:33:00 AM 26.8217 106.6089 149° Southeast  Level Estimated
Fri 03:34:00 AM 26.7503 106.6573 149° Southeast  Level Estimated
Fri 03:35:00 AM 26.6789 106.7057 149° Southeast  Level Estimated
Fri 03:36:00 AM 26.6075 106.7540 149° Southeast  Level Estimated
Fri 03:37:00 AM 26.5385 106.8007 149° Southeast  Level Estimated
Fri 03:38:00 AM 26.5385 106.8007 North  Level Estimated
Fri 03:39:00 AM 26.5385 106.8007 North  Level Estimated
Fri 03:40:00 AM 26.5385 106.8007 North  Level Estimated
Fri 03:41:00 AM 26.5385 106.8007 North  Level Estimated
Fri 03:42:00 AM 26.5385 106.8007 North  Level Estimated
Fri 03:43:00 AM 26.5385 106.8007 North  Level Estimated
Fri 03:44:00 AM 26.5385 106.8007 North  Level Estimated
Fri 03:45:00 AM 26.5385 106.8007 North  Level Estimated
Fri 03:46:00 AM 26.5385 106.8007 North  Level Estimated

Login

Don't have an account? Register now (free) for customized features, flight alerts, and more!